sensor_id;sensor_type;location;lat;lon;timestamp;pressure;altitude;pressure_sealevel;temperature;humidity
1480;BME280;732;51.698;4.886;2023-07-02T00:00:24;100895.75;;;13.95;70.13
1480;BME280;732;51.698;4.886;2023-07-02T00:02:53;100882.19;;;13.82;70.30
1480;BME280;732;51.698;4.886;2023-07-02T00:05:21;100894.88;;;13.88;70.50
1480;BME280;732;51.698;4.886;2023-07-02T00:07:50;100886.19;;;13.99;69.93
1480;BME280;732;51.698;4.886;2023-07-02T00:10:18;100898.69;;;14.07;70.11
1480;BME280;732;51.698;4.886;2023-07-02T00:12:48;100894.53;;;14.11;69.74
1480;BME280;732;51.698;4.886;2023-07-02T00:15:16;100880.41;;;14.02;69.51
1480;BME280;732;51.698;4.886;2023-07-02T00:17:45;100902.22;;;14.07;69.98
1480;BME280;732;51.698;4.886;2023-07-02T00:20:13;100896.53;;;13.89;70.26
1480;BME280;732;51.698;4.886;2023-07-02T00:22:44;100875.97;;;13.88;70.29
1480;BME280;732;51.698;4.886;2023-07-02T00:25:14;100918.00;;;14.17;70.05
1480;BME280;732;51.698;4.886;2023-07-02T00:27:42;100912.78;;;14.09;70.84
1480;BME280;732;51.698;4.886;2023-07-02T00:30:13;100904.22;;;13.92;71.00
1480;BME280;732;51.698;4.886;2023-07-02T00:32:41;100907.91;;;13.84;71.72
1480;BME280;732;51.698;4.886;2023-07-02T00:35:11;100917.28;;;13.88;71.58
1480;BME280;732;51.698;4.886;2023-07-02T00:37:40;100917.28;;;13.88;71.48
1480;BME280;732;51.698;4.886;2023-07-02T00:40:10;100924.91;;;13.78;71.10
1480;BME280;732;51.698;4.886;2023-07-02T00:42:38;100907.69;;;13.72;70.82
1480;BME280;732;51.698;4.886;2023-07-02T00:45:08;100925.34;;;13.75;69.91
1480;BME280;732;51.698;4.886;2023-07-02T00:47:38;100922.06;;;13.93;68.51
1480;BME280;732;51.698;4.886;2023-07-02T00:50:07;100917.66;;;13.78;67.81
1480;BME280;732;51.698;4.886;2023-07-02T00:52:37;100927.59;;;13.78;67.09
1480;BME280;732;51.698;4.886;2023-07-02T00:55:07;100921.81;;;13.81;66.65
1480;BME280;732;51.698;4.886;2023-07-02T00:57:35;100925.38;;;13.88;66.14
1480;BME280;732;51.698;4.886;2023-07-02T01:00:06;100938.31;;;14.00;65.73
1480;BME280;732;51.698;4.886;2023-07-02T01:02:34;100923.91;;;13.86;64.75
1480;BME280;732;51.698;4.886;2023-07-02T01:05:05;100934.66;;;13.79;64.46
1480;BME280;732;51.698;4.886;2023-07-02T01:07:33;100925.97;;;13.77;64.10
1480;BME280;732;51.698;4.886;2023-07-02T01:10:02;100928.84;;;13.75;63.48
1480;BME280;732;51.698;4.886;2023-07-02T01:12:30;100936.72;;;13.70;62.95
1480;BME280;732;51.698;4.886;2023-07-02T01:15:02;100941.72;;;13.73;62.47
1480;BME280;732;51.698;4.886;2023-07-02T01:17:33;100941.91;;;13.72;61.86
1480;BME280;732;51.698;4.886;2023-07-02T01:20:10;100917.41;;;13.67;61.38
1480;BME280;732;51.698;4.886;2023-07-02T01:22:39;100924.91;;;13.78;60.01
1480;BME280;732;51.698;4.886;2023-07-02T01:25:08;100949.00;;;13.86;60.23
1480;BME280;732;51.698;4.886;2023-07-02T01:27:37;100947.38;;;13.92;59.64
1480;BME280;732;51.698;4.886;2023-07-02T01:30:08;100923.88;;;13.72;59.94
1480;BME280;732;51.698;4.886;2023-07-02T01:32:38;100954.81;;;13.83;59.40
1480;BME280;732;51.698;4.886;2023-07-02T01:35:08;100942.97;;;13.77;59.00
1480;BME280;732;51.698;4.886;2023-07-02T01:37:37;100950.69;;;13.87;58.88
1480;BME280;732;51.698;4.886;2023-07-02T01:40:07;100925.34;;;13.75;58.91
1480;BME280;732;51.698;4.886;2023-07-02T01:42:38;100958.72;;;13.74;58.64
1480;BME280;732;51.698;4.886;2023-07-02T01:45:07;100951.31;;;13.41;59.20
1480;BME280;732;51.698;4.886;2023-07-02T01:47:36;100948.53;;;13.27;59.18
1480;BME280;732;51.698;4.886;2023-07-02T01:50:06;100951.38;;;13.19;58.88
1480;BME280;732;51.698;4.886;2023-07-02T01:52:35;100926.09;;;13.20;58.92
1480;BME280;732;51.698;4.886;2023-07-02T01:55:05;100949.81;;;13.38;58.67
1480;BME280;732;51.698;4.886;2023-07-02T01:57:33;100943.47;;;13.46;58.63
1480;BME280;732;51.698;4.886;2023-07-02T02:00:01;100958.84;;;13.52;58.42
1480;BME280;732;51.698;4.886;2023-07-02T02:02:42;100960.44;;;13.40;58.27
1480;BME280;732;51.698;4.886;2023-07-02T02:05:10;100936.25;;;13.18;58.65
1480;BME280;732;51.698;4.886;2023-07-02T02:07:41;100958.03;;;13.23;58.80
1480;BME280;732;51.698;4.886;2023-07-02T02:10:10;100952.06;;;13.28;58.84
1480;BME280;732;51.698;4.886;2023-07-02T02:12:38;100955.19;;;13.32;58.42
1480;BME280;732;51.698;4.886;2023-07-02T02:15:07;100961.94;;;13.21;59.26
1480;BME280;732;51.698;4.886;2023-07-02T02:17:36;100959.25;;;13.21;58.80
1480;BME280;732;51.698;4.886;2023-07-02T02:20:06;100959.56;;;13.33;58.65
1480;BME280;732;51.698;4.886;2023-07-02T02:22:35;100960.19;;;13.35;58.56
1480;BME280;732;51.698;4.886;2023-07-02T02:25:06;100957.00;;;13.24;58.52
1480;BME280;732;51.698;4.886;2023-07-02T02:27:35;100937.81;;;13.06;58.87
1480;BME280;732;51.698;4.886;2023-07-02T02:30:06;100961.59;;;13.30;58.50
1480;BME280;732;51.698;4.886;2023-07-02T02:32:35;100943.75;;;13.29;58.39
1480;BME280;732;51.698;4.886;2023-07-02T02:35:08;100979.34;;;13.53;58.62
1480;BME280;732;51.698;4.886;2023-07-02T02:37:38;100978.84;;;13.36;58.30
1480;BME280;732;51.698;4.886;2023-07-02T02:40:10;100980.28;;;13.32;57.85
1480;BME280;732;51.698;4.886;2023-07-02T02:42:40;100952.03;;;13.21;57.34
1480;BME280;732;51.698;4.886;2023-07-02T02:45:09;100961.13;;;13.20;57.27
1480;BME280;732;51.698;4.886;2023-07-02T02:47:37;100970.81;;;13.14;56.66
1480;BME280;732;51.698;4.886;2023-07-02T02:50:07;100980.31;;;13.04;56.81
1480;BME280;732;51.698;4.886;2023-07-02T02:52:36;100986.06;;;13.01;56.00
1480;BME280;732;51.698;4.886;2023-07-02T02:55:09;100986.72;;;13.03;55.94
1480;BME280;732;51.698;4.886;2023-07-02T02:57:37;100986.91;;;12.79;56.01
1480;BME280;732;51.698;4.886;2023-07-02T03:00:07;100991.66;;;12.77;57.41
1480;BME280;732;51.698;4.886;2023-07-02T03:02:36;100990.44;;;12.80;57.10
1480;BME280;732;51.698;4.886;2023-07-02T03:05:06;100991.66;;;12.77;56.74
1480;BME280;732;51.698;4.886;2023-07-02T03:07:35;100976.31;;;12.78;56.01
1480;BME280;732;51.698;4.886;2023-07-02T03:10:04;100998.34;;;12.88;56.46
1480;BME280;732;51.698;4.886;2023-07-02T03:12:34;101007.03;;;12.84;56.38
1480;BME280;732;51.698;4.886;2023-07-02T03:15:03;100987.75;;;12.80;56.41
1480;BME280;732;51.698;4.886;2023-07-02T03:17:32;100991.50;;;12.86;56.59
1480;BME280;732;51.698;4.886;2023-07-02T03:20:00;101002.38;;;12.92;56.03
1480;BME280;732;51.698;4.886;2023-07-02T03:22:29;100973.38;;;12.73;56.10
1480;BME280;732;51.698;4.886;2023-07-02T03:24:57;100998.19;;;12.90;56.42
1480;BME280;732;51.698;4.886;2023-07-02T03:27:26;101008.44;;;12.79;56.60
1480;BME280;732;51.698;4.886;2023-07-02T03:29:56;100980.78;;;12.64;56.63
1480;BME280;732;51.698;4.886;2023-07-02T03:32:25;101006.09;;;12.91;56.04
1480;BME280;732;51.698;4.886;2023-07-02T03:34:54;101012.16;;;12.78;56.55
1480;BME280;732;51.698;4.886;2023-07-02T03:37:22;101000.44;;;12.64;56.54
1480;BME280;732;51.698;4.886;2023-07-02T03:39:51;100992.00;;;12.68;56.50
1480;BME280;732;51.698;4.886;2023-07-02T03:42:19;101015.44;;;12.95;56.54
1480;BME280;732;51.698;4.886;2023-07-02T03:44:48;100990.19;;;12.75;56.33
1480;BME280;732;51.698;4.886;2023-07-02T03:47:17;101013.66;;;12.81;56.77
1480;BME280;732;51.698;4.886;2023-07-02T03:49:47;100998.47;;;12.52;57.37
1480;BME280;732;51.698;4.886;2023-07-02T03:52:15;101004.28;;;12.55;57.79
1480;BME280;732;51.698;4.886;2023-07-02T03:54:44;101008.72;;;12.63;57.74
1480;BME280;732;51.698;4.886;2023-07-02T03:57:13;101017.56;;;12.57;57.79
1480;BME280;732;51.698;4.886;2023-07-02T03:59:41;101025.81;;;12.55;58.05
1480;BME280;732;51.698;4.886;2023-07-02T04:02:09;101023.44;;;12.45;58.52
1480;BME280;732;51.698;4.886;2023-07-02T04:04:39;101027.03;;;12.53;58.63
1480;BME280;732;51.698;4.886;2023-07-02T04:07:08;101032.16;;;12.69;58.67
1480;BME280;732;51.698;4.886;2023-07-02T04:09:36;101032.88;;;12.56;58.96
1480;BME280;732;51.698;4.886;2023-07-02T04:12:06;101032.38;;;12.68;58.82
1480;BME280;732;51.698;4.886;2023-07-02T04:14:34;101040.44;;;12.68;58.82
1480;BME280;732;51.698;4.886;2023-07-02T04:17:03;101032.63;;;12.94;58.22
1480;BME280;732;51.698;4.886;2023-07-02T04:19:32;101027.88;;;12.96;58.44
1480;BME280;732;51.698;4.886;2023-07-02T04:22:01;101030.81;;;13.02;58.40
1480;BME280;732;51.698;4.886;2023-07-02T04:24:30;101012.59;;;12.82;58.28
1480;BME280;732;51.698;4.886;2023-07-02T04:26:59;100998.59;;;12.65;58.56
1480;BME280;732;51.698;4.886;2023-07-02T04:29:47;101040.50;;;12.74;58.23
1480;BME280;732;51.698;4.886;2023-07-02T04:32:19;101046.97;;;12.80;58.49
1480;BME280;732;51.698;4.886;2023-07-02T04:34:47;101050.69;;;13.01;58.40
1480;BME280;732;51.698;4.886;2023-07-02T04:37:18;101049.31;;;13.05;57.92
1480;BME280;732;51.698;4.886;2023-07-02T04:39:46;101053.28;;;13.09;58.01
1480;BME280;732;51.698;4.886;2023-07-02T04:42:14;101061.03;;;12.97;58.01
1480;BME280;732;51.698;4.886;2023-07-02T04:44:43;101065.03;;;13.01;57.62
1480;BME280;732;51.698;4.886;2023-07-02T04:47:11;101047.97;;;12.94;58.04
1480;BME280;732;51.698;4.886;2023-07-02T04:49:39;101061.03;;;13.19;57.91
1480;BME280;732;51.698;4.886;2023-07-02T04:52:08;101064.34;;;13.21;57.90
1480;BME280;732;51.698;4.886;2023-07-02T04:54:37;101028.13;;;13.02;58.06
1480;BME280;732;51.698;4.886;2023-07-02T04:57:07;101042.09;;;13.12;58.34
1480;BME280;732;51.698;4.886;2023-07-02T04:59:35;101073.56;;;13.33;58.43
1480;BME280;732;51.698;4.886;2023-07-02T05:02:04;101078.41;;;13.44;58.57
1480;BME280;732;51.698;4.886;2023-07-02T05:04:32;101065.72;;;13.38;58.10
1480;BME280;732;51.698;4.886;2023-07-02T05:07:01;101083.28;;;13.56;58.25
1480;BME280;732;51.698;4.886;2023-07-02T05:09:29;101080.66;;;13.69;57.97
1480;BME280;732;51.698;4.886;2023-07-02T05:11:59;101083.66;;;13.88;57.88
1480;BME280;732;51.698;4.886;2023-07-02T05:14:27;101068.03;;;13.76;57.33
1480;BME280;732;51.698;4.886;2023-07-02T05:16:55;101091.63;;;13.96;57.43
1480;BME280;732;51.698;4.886;2023-07-02T05:19:24;101092.75;;;14.08;57.03
1480;BME280;732;51.698;4.886;2023-07-02T05:21:52;101090.03;;;14.08;56.80
1480;BME280;732;51.698;4.886;2023-07-02T05:24:21;101095.81;;;13.99;56.41
1480;BME280;732;51.698;4.886;2023-07-02T05:26:49;101101.94;;;13.86;56.69
1480;BME280;732;51.698;4.886;2023-07-02T05:29:20;101096.31;;;14.16;56.05
1480;BME280;732;51.698;4.886;2023-07-02T05:31:48;101101.16;;;14.40;55.08
1480;BME280;732;51.698;4.886;2023-07-02T05:34:16;101107.19;;;14.36;54.68
1480;BME280;732;51.698;4.886;2023-07-02T05:36:45;101097.41;;;14.35;54.38
1480;BME280;732;51.698;4.886;2023-07-02T05:39:13;101071.28;;;14.42;54.54
1480;BME280;732;51.698;4.886;2023-07-02T05:41:42;101104.38;;;14.64;53.87
1480;BME280;732;51.698;4.886;2023-07-02T05:44:10;101103.63;;;14.35;53.74
1480;BME280;732;51.698;4.886;2023-07-02T05:46:40;101072.19;;;14.14;54.08
1480;BME280;732;51.698;4.886;2023-07-02T05:49:08;101111.88;;;14.20;54.06
1480;BME280;732;51.698;4.886;2023-07-02T05:51:37;101104.13;;;14.04;54.10
1480;BME280;732;51.698;4.886;2023-07-02T05:54:05;101115.56;;;14.06;54.54
1480;BME280;732;51.698;4.886;2023-07-02T05:56:34;101104.09;;;14.46;54.32
1480;BME280;732;51.698;4.886;2023-07-02T05:59:02;101099.94;;;14.43;53.50
1480;BME280;732;51.698;4.886;2023-07-02T06:01:30;101116.31;;;14.35;53.47
1480;BME280;732;51.698;4.886;2023-07-02T06:04:00;101114.25;;;14.37;53.74
1480;BME280;732;51.698;4.886;2023-07-02T06:06:28;101126.31;;;14.41;54.06
1480;BME280;732;51.698;4.886;2023-07-02T06:08:57;101119.72;;;14.70;54.07
1480;BME280;732;51.698;4.886;2023-07-02T06:11:25;101130.16;;;14.80;54.00
1480;BME280;732;51.698;4.886;2023-07-02T06:13:53;101131.78;;;14.61;53.78
1480;BME280;732;51.698;4.886;2023-07-02T06:16:22;101133.22;;;14.64;54.37
1480;BME280;732;51.698;4.886;2023-07-02T06:18:50;101140.31;;;14.65;54.46
1480;BME280;732;51.698;4.886;2023-07-02T06:21:20;101139.09;;;14.87;53.89
1480;BME280;732;51.698;4.886;2023-07-02T06:23:48;101147.91;;;15.16;53.58
1480;BME280;732;51.698;4.886;2023-07-02T06:26:17;101147.72;;;15.18;54.22
1480;BME280;732;51.698;4.886;2023-07-02T06:28:45;101143.34;;;15.10;53.64
1480;BME280;732;51.698;4.886;2023-07-02T06:31:14;101131.06;;;15.01;52.90
1480;BME280;732;51.698;4.886;2023-07-02T06:33:42;101140.03;;;15.15;53.75
1480;BME280;732;51.698;4.886;2023-07-02T06:36:10;101149.81;;;15.09;53.75
1480;BME280;732;51.698;4.886;2023-07-02T06:38:44;101149.34;;;14.99;54.52
1480;BME280;732;51.698;4.886;2023-07-02T06:41:13;101120.69;;;15.04;53.77
1480;BME280;732;51.698;4.886;2023-07-02T06:43:42;101147.09;;;15.22;53.85
1480;BME280;732;51.698;4.886;2023-07-02T06:46:11;101167.91;;;15.15;53.15
1480;BME280;732;51.698;4.886;2023-07-02T06:48:39;101158.75;;;15.30;51.91
1480;BME280;732;51.698;4.886;2023-07-02T06:51:08;101170.00;;;15.60;51.11
1480;BME280;732;51.698;4.886;2023-07-02T06:53:39;101158.56;;;15.71;51.59
1480;BME280;732;51.698;4.886;2023-07-02T06:56:09;101173.34;;;15.69;51.37
1480;BME280;732;51.698;4.886;2023-07-02T06:58:39;101173.72;;;15.79;51.84
1480;BME280;732;51.698;4.886;2023-07-02T07:01:07;101168.94;;;15.75;50.83
1480;BME280;732;51.698;4.886;2023-07-02T07:03:35;101179.34;;;15.91;52.09
1480;BME280;732;51.698;4.886;2023-07-02T07:06:04;101189.34;;;16.04;51.04
1480;BME280;732;51.698;4.886;2023-07-02T07:08:32;101195.16;;;16.01;51.35
1480;BME280;732;51.698;4.886;2023-07-02T07:11:00;101192.41;;;16.21;51.21
1480;BME280;732;51.698;4.886;2023-07-02T07:13:30;101198.94;;;16.65;50.71
1480;BME280;732;51.698;4.886;2023-07-02T07:15:58;101199.59;;;16.61;49.72
1480;BME280;732;51.698;4.886;2023-07-02T07:18:27;101166.44;;;16.07;50.54
1480;BME280;732;51.698;4.886;2023-07-02T07:20:59;101203.06;;;16.09;50.16
1480;BME280;732;51.698;4.886;2023-07-02T07:23:27;101204.09;;;16.15;50.64
1480;BME280;732;51.698;4.886;2023-07-02T07:25:55;101196.44;;;16.05;48.99
1480;BME280;732;51.698;4.886;2023-07-02T07:28:24;101214.53;;;15.84;50.16
1480;BME280;732;51.698;4.886;2023-07-02T07:30:53;101209.75;;;15.53;48.79
1480;BME280;732;51.698;4.886;2023-07-02T07:33:22;101218.88;;;15.32;47.94
1480;BME280;732;51.698;4.886;2023-07-02T07:35:50;101218.69;;;15.60;47.37
1480;BME280;732;51.698;4.886;2023-07-02T07:38:18;101220.78;;;15.85;46.86
1480;BME280;732;51.698;4.886;2023-07-02T07:40:47;101206.59;;;15.76;47.84
1480;BME280;732;51.698;4.886;2023-07-02T07:43:16;101228.91;;;15.92;47.70
1480;BME280;732;51.698;4.886;2023-07-02T07:45:45;101233.06;;;16.01;48.13
1480;BME280;732;51.698;4.886;2023-07-02T07:48:16;101218.88;;;16.19;47.78
1480;BME280;732;51.698;4.886;2023-07-02T07:50:44;101189.59;;;16.61;47.73
1480;BME280;732;51.698;4.886;2023-07-02T07:53:13;101230.75;;;16.90;46.95
1480;BME280;732;51.698;4.886;2023-07-02T07:55:42;101234.69;;;16.94;47.02
1480;BME280;732;51.698;4.886;2023-07-02T07:58:10;101226.44;;;16.76;47.51
1480;BME280;732;51.698;4.886;2023-07-02T08:00:39;101226.25;;;17.16;46.97
1480;BME280;732;51.698;4.886;2023-07-02T08:03:07;101204.41;;;17.04;45.27
1480;BME280;732;51.698;4.886;2023-07-02T08:05:37;101231.16;;;17.32;46.09
1480;BME280;732;51.698;4.886;2023-07-02T08:08:05;101225.69;;;17.07;46.57
1480;BME280;732;51.698;4.886;2023-07-02T08:10:35;101221.53;;;16.98;44.89
1480;BME280;732;51.698;4.886;2023-07-02T08:13:04;101224.97;;;16.80;45.63
1480;BME280;732;51.698;4.886;2023-07-02T08:15:32;101229.00;;;17.09;45.29
1480;BME280;732;51.698;4.886;2023-07-02T08:18:01;101233.13;;;17.12;44.98
1480;BME280;732;51.698;4.886;2023-07-02T08:20:31;101241.28;;;16.53;46.78
1480;BME280;732;51.698;4.886;2023-07-02T08:23:01;101232.94;;;16.61;46.28
1480;BME280;732;51.698;4.886;2023-07-02T08:25:29;101243.16;;;16.59;45.56
1480;BME280;732;51.698;4.886;2023-07-02T08:27:58;101211.19;;;16.23;47.11
1480;BME280;732;51.698;4.886;2023-07-02T08:30:27;101238.53;;;16.80;46.60
1480;BME280;732;51.698;4.886;2023-07-02T08:32:55;101236.34;;;17.34;44.97
1480;BME280;732;51.698;4.886;2023-07-02T08:35:23;101215.34;;;17.23;44.57
1480;BME280;732;51.698;4.886;2023-07-02T08:37:52;101217.91;;;17.11;45.36
1480;BME280;732;51.698;4.886;2023-07-02T08:40:22;101248.59;;;17.11;45.13
1480;BME280;732;51.698;4.886;2023-07-02T08:42:50;101232.91;;;17.20;44.79
1480;BME280;732;51.698;4.886;2023-07-02T08:45:20;101211.53;;;17.37;44.48
1480;BME280;732;51.698;4.886;2023-07-02T08:47:51;101232.31;;;17.11;45.44
1480;BME280;732;51.698;4.886;2023-07-02T08:50:22;101240.38;;;16.86;44.14
1480;BME280;732;51.698;4.886;2023-07-02T08:52:50;101240.81;;;16.69;43.87
1480;BME280;732;51.698;4.886;2023-07-02T08:55:22;101244.19;;;16.58;44.15
1480;BME280;732;51.698;4.886;2023-07-02T08:57:56;101251.91;;;16.55;43.93
1480;BME280;732;51.698;4.886;2023-07-02T09:00:27;101244.78;;;16.67;44.80
1480;BME280;732;51.698;4.886;2023-07-02T09:02:58;101241.69;;;16.57;44.17
1480;BME280;732;51.698;4.886;2023-07-02T09:05:26;101259.34;;;16.86;42.86
1480;BME280;732;51.698;4.886;2023-07-02T09:07:54;101244.13;;;16.78;41.79
1480;BME280;732;51.698;4.886;2023-07-02T09:10:28;101256.06;;;16.64;41.85
1480;BME280;732;51.698;4.886;2023-07-02T09:13:05;101245.34;;;16.89;41.75
1480;BME280;732;51.698;4.886;2023-07-02T09:15:37;101243.69;;;17.27;41.94
1480;BME280;732;51.698;4.886;2023-07-02T09:18:18;101259.25;;;17.45;39.10
1480;BME280;732;51.698;4.886;2023-07-02T09:20:50;101247.38;;;17.07;39.18
1480;BME280;732;51.698;4.886;2023-07-02T09:23:18;101219.81;;;16.65;40.60
1480;BME280;732;51.698;4.886;2023-07-02T09:25:48;101256.69;;;17.50;40.80
1480;BME280;732;51.698;4.886;2023-07-02T09:28:21;101255.25;;;18.05;38.53
1480;BME280;732;51.698;4.886;2023-07-02T09:30:55;101238.31;;;17.84;37.35
1480;BME280;732;51.698;4.886;2023-07-02T09:33:24;101242.00;;;17.64;36.39
1480;BME280;732;51.698;4.886;2023-07-02T09:35:53;101240.09;;;17.40;37.54
1480;BME280;732;51.698;4.886;2023-07-02T09:38:22;101248.72;;;17.87;38.00
1480;BME280;732;51.698;4.886;2023-07-02T09:40:53;101250.09;;;17.96;37.66
1480;BME280;732;51.698;4.886;2023-07-02T09:43:22;101244.25;;;18.37;37.13
1480;BME280;732;51.698;4.886;2023-07-02T09:45:54;101236.13;;;18.18;36.88
1480;BME280;732;51.698;4.886;2023-07-02T09:48:24;101228.94;;;17.80;36.38
1480;BME280;732;51.698;4.886;2023-07-02T09:50:54;101250.56;;;17.93;37.26
1480;BME280;732;51.698;4.886;2023-07-02T09:53:28;101258.97;;;18.29;37.97
1480;BME280;732;51.698;4.886;2023-07-02T09:55:57;101256.31;;;18.04;38.04
1480;BME280;732;51.698;4.886;2023-07-02T09:58:26;101260.63;;;18.11;38.09
1480;BME280;732;51.698;4.886;2023-07-02T10:00:54;101263.75;;;18.34;37.66
1480;BME280;732;51.698;4.886;2023-07-02T10:03:30;101259.59;;;18.31;37.26
1480;BME280;732;51.698;4.886;2023-07-02T10:06:06;101273.59;;;18.09;38.61
1480;BME280;732;51.698;4.886;2023-07-02T10:08:35;101271.31;;;18.06;39.94
1480;BME280;732;51.698;4.886;2023-07-02T10:11:12;101266.53;;;18.27;39.68
1480;BME280;732;51.698;4.886;2023-07-02T10:13:41;101241.38;;;18.13;38.60
1480;BME280;732;51.698;4.886;2023-07-02T10:16:09;101249.16;;;19.02;38.09
1480;BME280;732;51.698;4.886;2023-07-02T10:18:38;101261.59;;;19.29;36.51
1480;BME280;732;51.698;4.886;2023-07-02T10:21:14;101266.72;;;19.37;34.90
1480;BME280;732;51.698;4.886;2023-07-02T10:23:43;101263.63;;;19.75;34.41
1480;BME280;732;51.698;4.886;2023-07-02T10:26:16;101258.72;;;19.54;34.58
1480;BME280;732;51.698;4.886;2023-07-02T10:28:56;101279.31;;;19.19;34.45
1480;BME280;732;51.698;4.886;2023-07-02T10:31:25;101270.56;;;19.17;34.00
1480;BME280;732;51.698;4.886;2023-07-02T10:33:54;101275.25;;;18.91;35.45
1480;BME280;732;51.698;4.886;2023-07-02T10:36:24;101257.31;;;18.28;36.08
1480;BME280;732;51.698;4.886;2023-07-02T10:38:53;101264.50;;;18.22;36.87
1480;BME280;732;51.698;4.886;2023-07-02T10:41:26;101274.50;;;18.22;36.23
1480;BME280;732;51.698;4.886;2023-07-02T10:44:06;101252.00;;;17.96;36.27
1480;BME280;732;51.698;4.886;2023-07-02T10:46:42;101280.41;;;18.19;35.86
1480;BME280;732;51.698;4.886;2023-07-02T10:49:10;101257.50;;;18.08;36.13
1480;BME280;732;51.698;4.886;2023-07-02T10:51:39;101263.41;;;18.05;36.10
1480;BME280;732;51.698;4.886;2023-07-02T10:54:08;101269.94;;;17.97;37.00
1480;BME280;732;51.698;4.886;2023-07-02T10:56:37;101265.94;;;18.25;37.02
1480;BME280;732;51.698;4.886;2023-07-02T10:59:06;101258.94;;;18.10;36.93
1480;BME280;732;51.698;4.886;2023-07-02T11:01:34;101279.56;;;18.37;36.97
1480;BME280;732;51.698;4.886;2023-07-02T11:04:04;101258.59;;;18.69;36.37
1480;BME280;732;51.698;4.886;2023-07-02T11:06:33;101260.06;;;18.84;35.71
1480;BME280;732;51.698;4.886;2023-07-02T11:09:01;101276.44;;;19.14;35.74
1480;BME280;732;51.698;4.886;2023-07-02T11:11:30;101279.00;;;19.09;36.11
1480;BME280;732;51.698;4.886;2023-07-02T11:14:00;101278.94;;;19.46;36.39
1480;BME280;732;51.698;4.886;2023-07-02T11:16:29;101272.72;;;19.81;36.47
1480;BME280;732;51.698;4.886;2023-07-02T11:19:08;101268.03;;;19.46;35.05
1480;BME280;732;51.698;4.886;2023-07-02T11:21:37;101276.09;;;18.92;36.32
1480;BME280;732;51.698;4.886;2023-07-02T11:24:07;101270.56;;;18.80;36.00
1480;BME280;732;51.698;4.886;2023-07-02T11:26:36;101272.03;;;19.32;36.45
1480;BME280;732;51.698;4.886;2023-07-02T11:29:12;101284.88;;;19.55;34.05
1480;BME280;732;51.698;4.886;2023-07-02T11:31:40;101283.88;;;19.37;33.20
1480;BME280;732;51.698;4.886;2023-07-02T11:34:12;101276.63;;;19.31;32.49
1480;BME280;732;51.698;4.886;2023-07-02T11:36:44;101284.94;;;19.36;31.49
1480;BME280;732;51.698;4.886;2023-07-02T11:39:12;101288.72;;;19.35;31.71
1480;BME280;732;51.698;4.886;2023-07-02T11:41:44;101267.59;;;19.19;30.44
1480;BME280;732;51.698;4.886;2023-07-02T11:44:14;101278.44;;;18.88;31.99
1480;BME280;732;51.698;4.886;2023-07-02T11:46:43;101285.56;;;19.20;32.66
1480;BME280;732;51.698;4.886;2023-07-02T11:49:11;101258.75;;;19.23;33.26
1480;BME280;732;51.698;4.886;2023-07-02T11:51:42;101267.78;;;19.36;30.51
1480;BME280;732;51.698;4.886;2023-07-02T11:54:16;101284.19;;;19.59;32.13
1480;BME280;732;51.698;4.886;2023-07-02T11:56:46;101287.69;;;19.48;32.09
1480;BME280;732;51.698;4.886;2023-07-02T11:59:16;101295.03;;;18.99;32.50
1480;BME280;732;51.698;4.886;2023-07-02T12:01:45;101269.13;;;18.96;33.91
1480;BME280;732;51.698;4.886;2023-07-02T12:04:13;101278.19;;;18.71;32.87
1480;BME280;732;51.698;4.886;2023-07-02T12:06:42;101287.25;;;18.65;34.10
1480;BME280;732;51.698;4.886;2023-07-02T12:09:11;101302.00;;;18.57;35.49
1480;BME280;732;51.698;4.886;2023-07-02T12:11:39;101277.25;;;19.15;35.07
1480;BME280;732;51.698;4.886;2023-07-02T12:14:07;101298.84;;;19.58;34.88
1480;BME280;732;51.698;4.886;2023-07-02T12:16:37;101280.06;;;19.26;34.38
1480;BME280;732;51.698;4.886;2023-07-02T12:19:08;101286.78;;;19.24;34.95
1480;BME280;732;51.698;4.886;2023-07-02T12:21:37;101304.63;;;19.50;35.22
1480;BME280;732;51.698;4.886;2023-07-02T12:24:06;101285.44;;;19.45;34.29
1480;BME280;732;51.698;4.886;2023-07-02T12:26:36;101302.91;;;19.37;35.88
1480;BME280;732;51.698;4.886;2023-07-02T12:29:05;101283.47;;;19.22;36.32
1480;BME280;732;51.698;4.886;2023-07-02T12:31:33;101306.63;;;19.43;35.71
1480;BME280;732;51.698;4.886;2023-07-02T12:34:03;101319.97;;;19.14;36.97
1480;BME280;732;51.698;4.886;2023-07-02T12:36:31;101313.47;;;18.59;37.79
1480;BME280;732;51.698;4.886;2023-07-02T12:39:01;101312.81;;;18.13;39.00
1480;BME280;732;51.698;4.886;2023-07-02T12:41:30;101305.53;;;18.39;39.17
1480;BME280;732;51.698;4.886;2023-07-02T12:43:58;101297.16;;;18.59;37.67
1480;BME280;732;51.698;4.886;2023-07-02T12:46:26;101292.78;;;18.96;37.51
1480;BME280;732;51.698;4.886;2023-07-02T12:48:55;101296.59;;;19.06;37.20
1480;BME280;732;51.698;4.886;2023-07-02T12:51:24;101300.75;;;19.58;37.34
1480;BME280;732;51.698;4.886;2023-07-02T12:53:53;101313.00;;;19.49;37.05
1480;BME280;732;51.698;4.886;2023-07-02T12:56:21;101317.22;;;19.63;36.37
1480;BME280;732;51.698;4.886;2023-07-02T12:58:49;101272.19;;;19.49;36.41
1480;BME280;732;51.698;4.886;2023-07-02T13:01:19;101315.72;;;19.79;35.30
1480;BME280;732;51.698;4.886;2023-07-02T13:03:47;101316.47;;;19.56;35.52
1480;BME280;732;51.698;4.886;2023-07-02T13:06:17;101298.84;;;19.58;36.08
1480;BME280;732;51.698;4.886;2023-07-02T13:08:47;101311.75;;;19.33;36.14
1480;BME280;732;51.698;4.886;2023-07-02T13:11:15;101327.47;;;19.49;35.75
1480;BME280;732;51.698;4.886;2023-07-02T13:13:43;101318.06;;;19.15;36.21
1480;BME280;732;51.698;4.886;2023-07-02T13:16:12;101329.47;;;19.23;36.91
1480;BME280;732;51.698;4.886;2023-07-02T13:18:43;101339.53;;;19.04;35.93
1480;BME280;732;51.698;4.886;2023-07-02T13:21:12;101310.16;;;18.94;36.92
1480;BME280;732;51.698;4.886;2023-07-02T13:23:40;101328.78;;;19.09;36.00
1480;BME280;732;51.698;4.886;2023-07-02T13:26:10;101326.00;;;18.98;36.07
1480;BME280;732;51.698;4.886;2023-07-02T13:28:38;101316.25;;;18.71;36.08
1480;BME280;732;51.698;4.886;2023-07-02T13:31:06;101320.34;;;18.99;36.74
1480;BME280;732;51.698;4.886;2023-07-02T13:33:37;101314.69;;;19.50;35.77